createdAt,value
2022-08-25T00:01:54.243Z,19.75
2022-08-25T00:04:24.798Z,19.46
2022-08-25T00:06:53.580Z,19.63
2022-08-25T00:09:22.753Z,19.48
2022-08-25T00:11:50.030Z,19.77
2022-08-25T00:14:23.691Z,19.49
2022-08-25T00:16:50.423Z,19.59
2022-08-25T00:19:19.796Z,19.74
2022-08-25T00:21:47.177Z,19.50
2022-08-25T00:24:16.763Z,19.47
2022-08-25T00:26:49.111Z,19.82
2022-08-25T00:29:15.960Z,19.58
2022-08-25T00:31:44.623Z,19.64
2022-08-25T00:34:18.117Z,19.59
2022-08-25T00:36:45.524Z,19.52
2022-08-25T00:39:12.058Z,19.21
2022-08-25T00:41:41.789Z,19.40
2022-08-25T00:44:10.952Z,19.31
2022-08-25T00:46:44.769Z,19.54
2022-08-25T00:49:25.379Z,19.18
2022-08-25T00:52:03.006Z,19.15
2022-08-25T00:54:41.013Z,19.27
2022-08-25T00:57:10.941Z,18.91
2022-08-25T00:59:37.660Z,19.35
2022-08-25T01:02:05.917Z,19.24
2022-08-25T01:04:34.909Z,18.95
2022-08-25T01:07:02.411Z,19.10
2022-08-25T01:09:32.593Z,18.93
2022-08-25T01:12:00.335Z,18.85
2022-08-25T01:14:28.964Z,19.21
2022-08-25T01:16:55.488Z,19.09
2022-08-25T01:19:22.047Z,18.90
2022-08-25T01:21:51.719Z,19.02
2022-08-25T01:24:47.018Z,19.42
2022-08-25T01:27:13.714Z,19.08
2022-08-25T01:29:40.297Z,19.45
2022-08-25T01:32:12.094Z,19.20
2022-08-25T01:34:41.543Z,19.24
2022-08-25T01:37:09.609Z,19.20
2022-08-25T01:39:40.942Z,18.88
2022-08-25T01:42:09.077Z,19.23
2022-08-25T01:44:38.580Z,18.96
2022-08-25T01:47:06.345Z,19.39
2022-08-25T01:49:33.250Z,19.24
2022-08-25T01:52:07.416Z,19.08
2022-08-25T01:54:34.076Z,18.75
2022-08-25T01:57:00.596Z,19.21
2022-08-25T01:59:27.638Z,18.96
2022-08-25T02:01:59.552Z,18.75
2022-08-25T02:04:29.523Z,19.13
2022-08-25T02:06:56.183Z,19.09
2022-08-25T02:09:23.031Z,18.99
2022-08-25T02:11:49.482Z,18.64
2022-08-25T02:14:20.711Z,18.59
2022-08-25T02:16:50.992Z,18.80
2022-08-25T02:19:18.900Z,18.87
2022-08-25T02:21:45.967Z,18.68
2022-08-25T02:24:13.781Z,18.80
2022-08-25T02:26:41.487Z,18.91
2022-08-25T02:29:11.207Z,18.84
2022-08-25T02:31:39.231Z,18.39
2022-08-25T02:34:07.666Z,18.67
2022-08-25T02:36:34.330Z,18.96
2022-08-25T02:39:01.136Z,18.69
2022-08-25T02:41:31.134Z,18.88
2022-08-25T02:43:59.270Z,18.84
2022-08-25T02:46:25.867Z,18.72
2022-08-25T02:48:53.406Z,18.97
2022-08-25T02:51:28.625Z,18.76
2022-08-25T02:53:55.103Z,18.43
2022-08-25T02:56:22.102Z,18.64
2022-08-25T02:58:48.693Z,18.46
2022-08-25T03:01:16.661Z,18.30
2022-08-25T03:03:45.690Z,18.09
2022-08-25T03:06:14.737Z,18.65
2022-08-25T03:08:42.200Z,18.30
2022-08-25T03:11:09.427Z,18.54
2022-08-25T03:13:36.374Z,18.40
2022-08-25T03:16:04.574Z,18.62
2022-08-25T03:18:31.565Z,18.56
2022-08-25T03:20:59.490Z,18.80
2022-08-25T03:23:26.802Z,18.83
2022-08-25T03:26:15.068Z,18.88
2022-08-25T03:28:41.810Z,18.31
2022-08-25T03:31:08.912Z,18.58
2022-08-25T03:33:36.996Z,18.23
2022-08-25T03:36:05.543Z,18.10
2022-08-25T03:38:32.390Z,18.78
2022-08-25T03:40:58.835Z,18.74
2022-08-25T03:43:25.431Z,18.55
2022-08-25T03:46:22.311Z,18.39
2022-08-25T03:49:26.662Z,18.64
2022-08-25T03:52:22.735Z,18.68
2022-08-25T03:54:57.573Z,18.58
2022-08-25T03:57:29.166Z,18.53
2022-08-25T04:00:12.159Z,18.59
2022-08-25T04:02:47.666Z,18.50
2022-08-25T04:05:36.931Z,19.04
2022-08-25T04:11:21.340Z,18.90
2022-08-25T04:14:19.698Z,18.46
2022-08-25T04:17:01.911Z,18.59
2022-08-25T04:19:52.280Z,18.87
2022-08-25T04:22:29.924Z,18.90
2022-08-25T04:31:24.440Z,18.93
2022-08-25T04:37:28.020Z,19.05
2022-08-25T04:40:00.571Z,18.92
2022-08-25T05:45:48.828Z,19.14
2022-08-25T05:48:15.766Z,19.26
2022-08-25T05:51:10.925Z,19.02
2022-08-25T06:05:20.470Z,19.14
2022-08-25T06:32:36.708Z,19.48
2022-08-25T07:02:14.061Z,19.76
2022-08-25T07:04:48.310Z,19.90
2022-08-25T07:07:15.078Z,19.89
2022-08-25T07:09:42.100Z,19.76
2022-08-25T07:12:11.906Z,19.80
2022-08-25T07:14:42.493Z,19.85
2022-08-25T07:17:23.674Z,19.95
2022-08-25T07:19:51.668Z,20.13
2022-08-25T07:22:25.829Z,20.35
2022-08-25T07:24:52.551Z,20.34
2022-08-25T07:27:26.897Z,20.28
2022-08-25T07:29:54.292Z,20.27
2022-08-25T07:32:36.226Z,19.93
2022-08-25T07:35:43.760Z,20.38
2022-08-25T07:38:09.177Z,20.33
2022-08-25T07:40:42.926Z,20.20
2022-08-25T07:43:10.569Z,20.38
2022-08-25T07:48:56.707Z,20.38
2022-08-25T07:51:38.893Z,20.64
2022-08-25T07:55:11.039Z,21.04
2022-08-25T07:58:12.358Z,20.45
2022-08-25T08:05:11.285Z,20.66
2022-08-25T08:11:05.498Z,21.00
2022-08-25T08:14:44.981Z,20.92
2022-08-25T08:17:42.391Z,20.60
2022-08-25T08:21:25.097Z,21.30
2022-08-25T08:24:10.740Z,21.03
2022-08-25T08:26:59.364Z,20.64
2022-08-25T08:29:48.302Z,21.09
2022-08-25T08:39:17.634Z,21.62
2022-08-25T08:46:11.790Z,21.55
2022-08-25T08:49:26.749Z,21.60
2022-08-25T08:52:24.399Z,21.66
2022-08-25T08:55:21.399Z,21.82
2022-08-25T08:57:52.037Z,21.69
2022-08-25T09:00:25.817Z,21.85
2022-08-25T09:03:31.279Z,21.94
2022-08-25T09:06:06.917Z,21.86
2022-08-25T09:08:33.904Z,22.00
2022-08-25T09:11:16.522Z,22.42
2022-08-25T09:15:00.300Z,22.48
2022-08-25T09:17:44.588Z,22.20
2022-08-25T09:20:35.886Z,22.24
2022-08-25T09:23:36.688Z,22.72
2022-08-25T09:26:36.497Z,22.35
2022-08-25T09:29:19.432Z,22.50
2022-08-25T09:35:57.782Z,22.78
2022-08-25T09:38:28.111Z,22.66
2022-08-25T09:41:41.468Z,22.98
2022-08-25T09:44:34.131Z,22.59
2022-08-25T09:47:23.512Z,22.80
2022-08-25T09:50:28.881Z,22.71
2022-08-25T09:53:04.335Z,22.76
2022-08-25T09:56:12.907Z,22.65
2022-08-25T09:58:39.528Z,22.62
2022-08-25T10:01:18.844Z,22.54
2022-08-25T10:04:00.111Z,22.79
2022-08-25T10:06:32.784Z,22.71
2022-08-25T10:09:07.839Z,23.23
2022-08-25T10:12:16.065Z,23.16
2022-08-25T10:14:44.411Z,23.03
2022-08-25T10:17:27.730Z,23.16
2022-08-25T10:20:17.465Z,22.80
2022-08-25T10:22:45.646Z,23.02
2022-08-25T10:25:21.976Z,23.27
2022-08-25T10:27:58.910Z,22.93
2022-08-25T10:30:36.221Z,23.44
2022-08-25T10:33:12.714Z,23.79
2022-08-25T10:35:49.680Z,23.81
2022-08-25T10:38:36.627Z,24.10
2022-08-25T10:42:13.093Z,24.55
2022-08-25T10:45:16.603Z,24.49
2022-08-25T10:48:13.533Z,24.17
2022-08-25T10:50:49.157Z,23.72
2022-08-25T10:53:19.254Z,23.72
2022-08-25T10:55:52.826Z,23.62
2022-08-25T10:58:32.277Z,24.03
2022-08-25T11:01:15.382Z,23.80
2022-08-25T11:03:51.171Z,23.50
2022-08-25T11:07:16.529Z,23.65
2022-08-25T11:16:58.051Z,23.88
2022-08-25T11:19:49.304Z,23.99
2022-08-25T11:22:29.081Z,24.58
2022-08-25T11:24:59.999Z,24.37
2022-08-25T11:27:53.286Z,24.43
2022-08-25T11:30:28.580Z,24.37
2022-08-25T11:32:56.497Z,24.59
2022-08-25T11:35:37.416Z,24.63
2022-08-25T11:38:16.708Z,24.75
2022-08-25T11:41:17.610Z,24.28
2022-08-25T11:43:53.445Z,24.68
2022-08-25T11:46:32.104Z,24.29
2022-08-25T11:49:44.456Z,24.66
2022-08-25T11:52:34.747Z,24.58
2022-08-25T12:02:52.482Z,24.29
2022-08-25T12:05:19.342Z,24.72
2022-08-25T12:08:22.696Z,25.09
2022-08-25T12:11:07.261Z,25.51
2022-08-25T12:14:16.746Z,24.86
2022-08-25T12:17:03.244Z,25.08
2022-08-25T12:19:35.879Z,24.91
2022-08-25T12:22:03.672Z,24.86
2022-08-25T12:24:47.629Z,24.90
2022-08-25T12:27:33.858Z,24.80
2022-08-25T12:30:15.586Z,24.51
2022-08-25T12:33:11.967Z,25.14
2022-08-25T12:35:57.955Z,25.12
2022-08-25T12:38:49.604Z,25.47
2022-08-25T12:41:24.191Z,25.50
2022-08-25T12:43:54.457Z,25.35
2022-08-25T12:46:21.067Z,25.53
2022-08-25T12:48:57.953Z,25.48
2022-08-25T12:51:28.803Z,25.71
2022-08-25T12:54:22.551Z,26.19
2022-08-25T13:01:00.932Z,26.04
2022-08-25T13:03:48.933Z,25.90
2022-08-25T13:06:26.778Z,25.65
2022-08-25T13:09:42.046Z,25.10
2022-08-25T13:12:25.567Z,25.55
2022-08-25T13:15:28.955Z,25.58
2022-08-25T13:18:12.475Z,25.52
2022-08-25T13:23:36.431Z,25.73
2022-08-25T13:33:33.381Z,26.39
2022-08-25T13:36:21.005Z,26.57
2022-08-25T13:38:51.227Z,26.22
2022-08-25T13:41:37.289Z,26.71
2022-08-25T13:44:07.297Z,26.42
2022-08-25T13:46:40.054Z,26.14
2022-08-25T13:49:09.326Z,26.19
2022-08-25T13:51:41.390Z,26.32
2022-08-25T13:54:36.021Z,26.37
2022-08-25T13:57:24.992Z,26.82
2022-08-25T14:00:00.275Z,26.53
2022-08-25T14:02:42.281Z,26.20
2022-08-25T14:05:32.386Z,26.00
2022-08-25T14:08:25.270Z,25.70
2022-08-25T14:11:08.078Z,25.64
2022-08-25T14:13:44.746Z,25.31
2022-08-25T14:16:14.299Z,26.04
2022-08-25T14:18:49.242Z,26.21
2022-08-25T14:21:19.624Z,26.39
2022-08-25T14:23:47.231Z,26.61
2022-08-25T14:26:18.634Z,27.06
2022-08-25T14:28:46.102Z,26.74
2022-08-25T14:31:16.639Z,26.47
2022-08-25T14:33:54.973Z,26.39
2022-08-25T14:36:21.688Z,26.37
2022-08-25T14:38:54.949Z,26.58
2022-08-25T14:41:23.840Z,26.71
2022-08-25T14:43:50.559Z,26.75
2022-08-25T14:46:33.502Z,26.67
2022-08-25T14:49:05.972Z,26.82
2022-08-25T14:51:33.987Z,27.01
2022-08-25T14:54:17.748Z,26.63
2022-08-25T14:56:49.800Z,26.28
2022-08-25T17:34:58.068Z,24.47
2022-08-25T17:37:30.897Z,24.59
2022-08-25T21:06:50.681Z,21.70
2022-08-25T21:09:26.166Z,21.23
2022-08-25T21:12:09.503Z,21.29
2022-08-25T21:14:48.354Z,21.50
2022-08-25T21:17:21.210Z,21.49
2022-08-25T21:20:14.518Z,21.44
2022-08-25T21:27:19.232Z,21.19
2022-08-25T21:29:31.118Z,21.21
2022-08-25T21:32:53.317Z,21.46
2022-08-25T21:35:22.437Z,21.36
2022-08-25T21:37:53.587Z,20.95
2022-08-25T21:40:28.475Z,20.57
2022-08-25T21:42:56.469Z,21.28
2022-08-25T21:45:23.254Z,21.15
2022-08-25T21:47:50.058Z,21.17
2022-08-25T21:50:19.191Z,21.50
2022-08-25T21:52:45.949Z,21.36
2022-08-25T21:55:16.094Z,21.14
2022-08-25T21:57:47.525Z,21.03
2022-08-25T22:00:15.124Z,20.86
2022-08-25T22:02:45.930Z,21.06
2022-08-25T22:05:12.826Z,21.05
2022-08-25T22:07:42.291Z,21.08
2022-08-25T22:10:15.910Z,20.94
2022-08-25T22:12:45.092Z,21.28
2022-08-25T22:15:12.478Z,21.26
2022-08-25T22:17:40.738Z,21.09
2022-08-25T22:20:08.795Z,21.02
2022-08-25T22:22:36.480Z,20.98
2022-08-25T22:25:03.987Z,21.05
2022-08-25T22:27:33.009Z,21.08
2022-08-25T22:30:02.884Z,21.40
2022-08-25T22:32:30.511Z,21.26
2022-08-25T22:34:57.178Z,21.30
2022-08-25T22:37:23.968Z,21.26
2022-08-25T22:39:50.830Z,21.17
2022-08-25T22:42:20.415Z,21.50
2022-08-25T22:44:53.931Z,21.09
2022-08-25T22:47:20.532Z,21.19
2022-08-25T22:49:47.217Z,21.39
2022-08-25T22:52:14.953Z,20.86
2022-08-25T22:54:42.035Z,21.05
2022-08-25T22:57:08.660Z,21.14
2022-08-25T22:59:35.106Z,21.28
2022-08-25T23:02:02.037Z,20.76
2022-08-25T23:04:31.321Z,20.92
2022-08-25T23:06:59.001Z,20.93
2022-08-25T23:09:25.694Z,21.00
2022-08-25T23:11:52.586Z,21.28
2022-08-25T23:14:20.183Z,21.35
2022-08-25T23:16:48.460Z,21.23
2022-08-25T23:19:16.942Z,21.18
2022-08-25T23:22:02.585Z,20.97
2022-08-25T23:24:30.867Z,21.12
2022-08-25T23:26:59.312Z,21.07
2022-08-25T23:29:26.342Z,20.94
2022-08-25T23:31:53.665Z,20.93
2022-08-25T23:34:22.751Z,21.09
2022-08-25T23:36:50.968Z,21.02
2022-08-25T23:39:18.134Z,20.90
2022-08-25T23:41:44.842Z,21.12
2022-08-25T23:44:17.006Z,21.19
2022-08-25T23:46:44.928Z,21.20
2022-08-25T23:49:12.391Z,21.01
2022-08-25T23:51:40.175Z,20.90
2022-08-25T23:54:10.864Z,20.91
2022-08-25T23:56:44.434Z,20.92
2022-08-25T23:59:11.820Z,21.16
